Time;durP1;ratioP1;P1;durP2;ratioP2;P2;SDS_P1;SDS_P2;PMS_P1;PMS_P2;Temp;Humidity;BMP_temperature;BMP_pressure;BME280_temperature;BME280_humidity;BME280_pressure;Samples;Min_cycle;Max_cycle;Signal;HPM_P1;HPM_P2
2022/03/06 00:03:57;;;;;;;11.33;9.40;;;3.00;25.10;;;;;;10354040;28;20229;-73
2022/03/06 00:09:00;;;;;;;12.23;10.20;;;2.90;25.00;;;;;;10358089;28;20272;-73
2022/03/06 00:14:05;;;;;;;12.73;10.20;;;2.90;25.00;;;;;;10347612;28;20226;-73
2022/03/06 00:19:08;;;;;;;9.67;8.17;;;2.90;25.10;;;;;;10345346;28;20334;-73
2022/03/06 00:24:12;;;;;;;10.43;8.33;;;2.80;25.10;;;;;;10352773;28;20237;-73
2022/03/06 00:29:17;;;;;;;12.07;9.40;;;2.80;25.20;;;;;;10353991;28;20234;-73
2022/03/06 00:34:20;;;;;;;11.20;8.63;;;2.70;25.40;;;;;;10348481;28;20227;-74
2022/03/06 00:39:24;;;;;;;8.77;7.13;;;2.70;25.20;;;;;;10356395;28;20231;-74
2022/03/06 00:44:29;;;;;;;9.50;7.70;;;2.60;25.10;;;;;;10351436;28;20310;-74
2022/03/06 00:49:32;;;;;;;11.87;9.23;;;2.60;25.20;;;;;;10352675;28;20238;-75
2022/03/06 00:54:36;;;;;;;10.43;7.63;;;2.60;25.30;;;;;;10350707;28;20239;-74
2022/03/06 00:59:40;;;;;;;10.70;8.77;;;2.50;25.20;;;;;;10348923;28;20222;-74
2022/03/06 01:04:43;;;;;;;10.43;7.90;;;2.50;25.30;;;;;;10351274;28;20615;-74
2022/03/06 01:09:47;;;;;;;9.03;7.50;;;2.50;25.20;;;;;;10356972;28;20749;-74
2022/03/06 01:14:51;;;;;;;9.43;7.50;;;2.50;25.20;;;;;;10357583;28;20757;-74
2022/03/06 01:19:54;;;;;;;10.70;8.30;;;2.50;25.40;;;;;;10355054;28;20236;-74
2022/03/06 01:24:57;;;;;;;10.60;8.90;;;2.50;25.40;;;;;;10351679;28;20305;-74
2022/03/06 01:30:05;;;;;;;9.30;7.67;;;2.30;25.30;;;;;;10355558;28;20688;-74
2022/03/06 01:35:09;;;;;;;10.23;7.97;;;2.30;25.40;;;;;;10354680;28;20314;-74
2022/03/06 01:40:14;;;;;;;9.90;7.83;;;2.30;25.50;;;;;;10356139;28;20241;-74
2022/03/06 01:45:21;;;;;;;11.13;8.00;;;2.30;25.60;;;;;;10344661;28;20237;-74
2022/03/06 01:50:28;;;;;;;8.33;7.07;;;2.20;25.60;;;;;;10350670;28;20223;-74
2022/03/06 01:55:31;;;;;;;10.57;8.00;;;2.20;25.50;;;;;;10352909;28;20226;-74
2022/03/06 02:00:38;;;;;;;11.40;8.37;;;2.10;25.50;;;;;;10348876;28;20253;-74
2022/03/06 02:05:42;;;;;;;9.07;7.57;;;2.10;25.50;;;;;;10355392;28;20804;-74
2022/03/06 02:10:45;;;;;;;9.27;7.63;;;2.30;25.60;;;;;;10349659;28;20240;-74
2022/03/06 02:15:50;;;;;;;8.43;6.63;;;2.10;25.40;;;;;;10344546;28;20229;-73
2022/03/06 02:20:54;;;;;;;8.07;7.20;;;2.00;25.40;;;;;;10347478;28;20321;-74
2022/03/06 02:25:58;;;;;;;7.87;6.70;;;2.00;25.40;;;;;;10345590;28;20230;-74
2022/03/06 02:31:02;;;;;;;8.90;7.23;;;1.90;25.40;;;;;;10347506;28;20227;-73
2022/03/06 02:36:06;;;;;;;8.43;7.37;;;2.00;25.50;;;;;;10348834;28;20794;-74
2022/03/06 02:41:11;;;;;;;10.70;8.47;;;1.80;25.40;;;;;;10352362;28;20230;-74
2022/03/06 02:46:14;;;;;;;9.93;8.53;;;1.80;25.60;;;;;;10342068;28;20698;-73
2022/03/06 02:51:17;;;;;;;9.40;7.97;;;1.80;25.60;;;;;;10344776;28;20233;-74
2022/03/06 02:56:22;;;;;;;10.83;8.60;;;1.80;25.60;;;;;;10349686;28;20231;-73
2022/03/06 03:01:26;;;;;;;10.80;7.60;;;1.60;25.70;;;;;;10359563;28;20237;-73
2022/03/06 03:06:30;;;;;;;11.00;9.13;;;1.60;25.80;;;;;;10356183;28;20269;-73
2022/03/06 03:11:35;;;;;;;10.83;8.80;;;1.50;25.70;;;;;;10356217;28;20227;-73
2022/03/06 03:16:38;;;;;;;10.87;8.60;;;1.40;26.00;;;;;;10354455;28;20608;-74
2022/03/06 03:21:41;;;;;;;11.33;8.90;;;1.40;26.10;;;;;;10352116;28;20230;-73
2022/03/06 03:26:46;;;;;;;11.40;9.33;;;1.40;26.20;;;;;;10352627;28;20233;-73
2022/03/06 03:31:49;;;;;;;12.93;8.60;;;1.30;26.30;;;;;;10353128;28;20226;-73
2022/03/06 03:36:52;;;;;;;11.23;9.17;;;1.30;26.30;;;;;;10352552;28;20297;-76
2022/03/06 03:41:57;;;;;;;10.67;8.73;;;1.30;26.30;;;;;;10358548;28;20222;-74
2022/03/06 03:47:00;;;;;;;12.07;9.10;;;1.30;26.50;;;;;;10363386;28;20748;-72
2022/03/06 03:52:04;;;;;;;13.07;9.73;;;1.20;26.40;;;;;;10355609;28;20231;-72
2022/03/06 03:57:08;;;;;;;11.27;9.03;;;1.20;26.40;;;;;;10352342;28;20245;-72
2022/03/06 04:02:11;;;;;;;10.83;8.97;;;1.20;26.60;;;;;;10363734;28;20222;-72
2022/03/06 04:07:15;;;;;;;12.13;9.77;;;1.20;26.50;;;;;;10354926;28;20235;-72
2022/03/06 04:12:19;;;;;;;14.33;10.00;;;1.20;26.50;;;;;;10353284;28;20230;-72
2022/03/06 04:17:23;;;;;;;12.10;8.97;;;1.20;26.90;;;;;;10356712;28;20242;-72
2022/03/06 04:22:26;;;;;;;11.43;8.57;;;1.10;26.70;;;;;;10351122;28;20229;-72
2022/03/06 04:27:30;;;;;;;13.57;9.00;;;1.10;26.60;;;;;;10358924;28;20226;-72
2022/03/06 04:32:34;;;;;;;10.70;8.57;;;1.10;26.80;;;;;;10361364;28;20233;-72
2022/03/06 04:37:37;;;;;;;10.93;8.27;;;1.10;26.60;;;;;;10354197;28;20246;-73
2022/03/06 04:42:42;;;;;;;10.37;8.10;;;1.10;26.60;;;;;;10350049;28;20241;-72
2022/03/06 04:47:45;;;;;;;11.00;8.90;;;1.10;26.70;;;;;;10354979;28;20258;-72
2022/03/06 04:52:48;;;;;;;12.00;9.20;;;1.10;26.50;;;;;;10347612;28;20230;-72
2022/03/06 04:57:52;;;;;;;10.23;7.80;;;1.10;26.50;;;;;;10365691;28;20234;-72
2022/03/06 05:02:56;;;;;;;11.83;8.43;;;1.00;26.40;;;;;;10358908;28;20722;-72
2022/03/06 05:07:59;;;;;;;12.40;9.40;;;1.00;26.50;;;;;;10336583;28;20637;-72
2022/03/06 05:13:04;;;;;;;12.03;9.13;;;1.00;26.50;;;;;;10331971;28;20240;-72
2022/03/06 05:18:07;;;;;;;10.53;8.67;;;0.90;26.60;;;;;;10335476;28;20246;-72
2022/03/06 05:23:10;;;;;;;10.93;8.33;;;0.90;26.60;;;;;;10358280;28;20237;-72
2022/03/06 05:28:15;;;;;;;9.97;7.53;;;0.90;26.60;;;;;;10345184;28;20234;-72
2022/03/06 05:33:19;;;;;;;10.43;7.57;;;0.80;26.80;;;;;;10356408;28;20350;-72
2022/03/06 05:38:23;;;;;;;8.97;7.30;;;0.80;26.60;;;;;;10342087;28;20250;-72
2022/03/06 05:43:27;;;;;;;10.17;7.93;;;0.80;26.60;;;;;;10349517;28;20597;-72
2022/03/06 05:48:30;;;;;;;8.23;7.00;;;0.80;26.90;;;;;;10349137;28;20280;-72
2022/03/06 05:53:34;;;;;;;9.50;8.03;;;0.80;26.90;;;;;;10348415;28;20226;-72
2022/03/06 05:58:38;;;;;;;10.40;7.93;;;0.80;26.90;;;;;;10356239;28;20232;-72
2022/03/06 06:03:43;;;;;;;12.10;8.57;;;0.80;27.10;;;;;;10346370;28;20219;-72
2022/03/06 06:08:46;;;;;;;9.07;8.13;;;0.80;27.10;;;;;;10346887;28;20235;-72
2022/03/06 06:13:50;;;;;;;9.97;8.10;;;0.80;27.70;;;;;;10350061;28;20277;-72
2022/03/06 06:18:53;;;;;;;10.03;8.50;;;0.80;27.30;;;;;;10344515;28;20234;-72
2022/03/06 06:23:57;;;;;;;10.17;8.27;;;0.80;27.30;;;;;;10340540;28;20230;-74
2022/03/06 06:29:01;;;;;;;10.97;8.23;;;0.90;27.50;;;;;;10344658;28;20257;-72
2022/03/06 06:34:04;;;;;;;11.97;8.33;;;0.80;27.80;;;;;;10344930;28;20230;-72
2022/03/06 06:39:09;;;;;;;10.93;8.30;;;0.80;27.50;;;;;;10356211;28;20340;-72
2022/03/06 06:44:14;;;;;;;11.90;8.40;;;0.90;27.80;;;;;;10350233;28;20215;-72
2022/03/06 06:49:17;;;;;;;10.23;8.17;;;0.90;28.10;;;;;;10344006;28;20234;-72
2022/03/06 06:54:20;;;;;;;11.03;8.70;;;0.90;28.00;;;;;;10355197;28;20252;-72
2022/03/06 06:59:25;;;;;;;10.10;8.47;;;1.00;28.10;;;;;;10351810;28;20237;-72
2022/03/06 07:04:28;;;;;;;12.47;8.70;;;1.00;28.40;;;;;;10351829;28;20242;-71
2022/03/06 07:09:31;;;;;;;10.70;9.10;;;1.10;28.30;;;;;;10344665;28;20234;-72
2022/03/06 07:14:36;;;;;;;17.73;9.80;;;1.20;28.60;;;;;;10349341;28;20230;-72
2022/03/06 07:19:39;;;;;;;11.80;9.33;;;1.20;28.80;;;;;;10349494;28;20238;-72
2022/03/06 07:24:43;;;;;;;10.13;8.80;;;1.30;28.80;;;;;;10346090;28;20230;-72
2022/03/06 07:29:47;;;;;;;12.43;9.33;;;1.40;28.90;;;;;;10343547;28;20246;-72
2022/03/06 07:34:50;;;;;;;11.23;9.17;;;1.60;29.50;;;;;;10337428;28;20241;-72
2022/03/06 07:39:54;;;;;;;13.43;9.70;;;1.70;29.40;;;;;;10347254;28;20250;-72
2022/03/06 07:44:59;;;;;;;13.17;9.90;;;1.80;29.50;;;;;;10359708;28;20296;-72
2022/03/06 07:50:07;;;;;;;12.57;9.63;;;1.90;29.90;;;;;;10353093;28;20226;-73
2022/03/06 07:55:12;;;;;;;11.63;9.73;;;2.00;30.00;;;;;;10354530;28;20270;-73
2022/03/06 08:00:17;;;;;;;12.17;9.37;;;2.20;29.90;;;;;;10347917;28;20250;-73
2022/03/06 08:05:20;;;;;;;13.47;10.90;;;2.40;30.00;;;;;;10349335;28;20876;-71
2022/03/06 08:10:23;;;;;;;12.70;9.30;;;2.70;30.10;;;;;;10355396;28;20235;-71
2022/03/06 08:15:30;;;;;;;11.97;9.73;;;2.70;29.90;;;;;;10345532;28;20338;-71
2022/03/06 08:20:33;;;;;;;11.63;10.43;;;2.90;30.10;;;;;;10342334;28;20290;-71
2022/03/06 08:25:36;;;;;;;12.10;10.10;;;3.20;30.00;;;;;;10346568;28;20260;-70
2022/03/06 08:30:41;;;;;;;12.80;10.23;;;3.40;30.00;;;;;;10343091;28;20234;-72
2022/03/06 08:35:44;;;;;;;12.17;10.57;;;3.90;30.00;;;;;;10355103;28;20234;-72
2022/03/06 08:40:52;;;;;;;11.20;9.97;;;4.00;30.00;;;;;;10359387;28;20222;-72
2022/03/06 08:45:57;;;;;;;11.80;10.47;;;4.30;29.60;;;;;;10355533;28;20310;-72
2022/03/06 08:51:00;;;;;;;10.73;9.37;;;4.50;29.40;;;;;;10345199;28;20230;-73
2022/03/06 08:56:03;;;;;;;12.70;10.23;;;4.80;29.30;;;;;;10321292;28;20238;-73
2022/03/06 09:01:08;;;;;;;11.63;10.17;;;5.10;29.30;;;;;;10339739;28;20242;-71
2022/03/06 09:06:11;;;;;;;10.60;9.50;;;5.30;29.00;;;;;;10305577;28;20236;-73
2022/03/06 09:11:15;;;;;;;11.83;10.63;;;5.60;28.70;;;;;;10313349;28;20234;-74
2022/03/06 09:16:19;;;;;;;12.10;10.43;;;5.90;28.50;;;;;;10346450;28;20237;-74
2022/03/06 09:21:22;;;;;;;13.10;9.97;;;6.10;28.00;;;;;;10350337;28;20226;-75
2022/03/06 09:26:26;;;;;;;12.40;9.60;;;6.30;27.90;;;;;;10355568;28;20698;-75
2022/03/06 09:31:30;;;;;;;11.17;9.50;;;6.60;27.90;;;;;;10348218;28;20254;-75
2022/03/06 09:36:35;;;;;;;11.87;9.87;;;6.80;27.60;;;;;;10322208;28;20272;-75
2022/03/06 09:41:39;;;;;;;9.87;8.87;;;7.00;27.20;;;;;;10352717;28;20218;-74
2022/03/06 09:46:44;;;;;;;11.03;9.83;;;7.20;27.30;;;;;;10356663;28;20230;-75
2022/03/06 09:51:47;;;;;;;10.30;9.23;;;7.40;27.20;;;;;;10359098;28;21492;-75
2022/03/06 09:56:50;;;;;;;10.93;9.57;;;7.60;26.90;;;;;;10358046;28;20336;-75
2022/03/06 10:01:59;;;;;;;10.10;8.97;;;7.70;26.80;;;;;;10348997;28;20227;-74
2022/03/06 10:07:04;;;;;;;10.60;9.50;;;7.80;26.20;;;;;;10325919;28;20243;-74
2022/03/06 10:12:19;;;;;;;10.70;9.57;;;7.90;25.90;;;;;;10327002;28;20310;-74
2022/03/06 10:17:25;;;;;;;10.80;9.27;;;7.80;25.20;;;;;;10345795;28;20231;-74
2022/03/06 10:22:31;;;;;;;10.73;9.63;;;7.80;25.60;;;;;;10367042;28;20728;-74
2022/03/06 10:27:48;;;;;;;11.00;9.90;;;7.70;25.80;;;;;;10367150;28;20241;-74
2022/03/06 10:32:55;;;;;;;10.57;9.40;;;7.70;25.30;;;;;;10363790;28;20236;-74
2022/03/06 10:37:58;;;;;;;11.27;10.10;;;7.60;25.60;;;;;;10365859;28;20238;-74
2022/03/06 10:43:02;;;;;;;10.43;9.43;;;7.70;25.70;;;;;;10365962;28;20677;-74
2022/03/06 10:48:11;;;;;;;10.23;9.23;;;7.70;25.50;;;;;;10366144;28;20738;-74
2022/03/06 10:53:22;;;;;;;10.20;9.13;;;7.80;25.10;;;;;;10365935;28;20230;-74
2022/03/06 10:58:27;;;;;;;10.00;8.93;;;8.00;24.80;;;;;;10365603;28;20703;-74
2022/03/06 11:03:52;;;;;;;10.33;9.23;;;8.10;25.10;;;;;;10366022;28;20232;-74
2022/03/06 11:08:56;;;;;;;9.90;8.90;;;8.20;25.00;;;;;;10365552;28;20746;-74
2022/03/06 11:13:59;;;;;;;10.83;9.73;;;8.20;25.00;;;;;;10365449;28;20317;-73
2022/03/06 11:19:04;;;;;;;9.87;8.87;;;8.30;25.60;;;;;;10364789;28;20232;-73
2022/03/06 11:24:12;;;;;;;9.17;8.27;;;8.40;24.80;;;;;;10326325;28;20235;-73
2022/03/06 11:29:46;;;;;;;9.73;8.63;;;8.50;24.60;;;;;;10326367;28;20296;-73
2022/03/06 11:34:53;;;;;;;9.77;8.83;;;8.60;23.80;;;;;;10326195;28;20239;-73
2022/03/06 11:39:57;;;;;;;10.20;8.97;;;8.60;24.20;;;;;;10341433;28;20444;-74
2022/03/06 11:45:00;;;;;;;9.50;8.60;;;8.60;24.30;;;;;;10354587;28;20230;-74
2022/03/06 11:50:06;;;;;;;9.40;8.50;;;8.60;24.30;;;;;;10345793;28;20255;-74
2022/03/06 11:55:31;;;;;;;10.13;9.13;;;8.60;23.90;;;;;;10338545;28;20231;-74
2022/03/06 12:00:38;;;;;;;10.23;9.23;;;8.60;23.30;;;;;;10360021;28;20222;-73
2022/03/06 12:05:54;;;;;;;10.20;9.20;;;8.50;23.60;;;;;;10339925;28;20317;-74
2022/03/06 12:10:58;;;;;;;10.23;9.13;;;8.50;23.30;;;;;;10368272;28;20230;-74
2022/03/06 12:16:03;;;;;;;9.90;8.90;;;8.50;23.90;;;;;;10343493;28;20253;-74
2022/03/06 12:21:20;;;;;;;10.90;9.80;;;8.50;23.90;;;;;;10326575;28;20711;-73
2022/03/06 12:26:45;;;;;;;9.53;8.47;;;8.40;22.90;;;;;;10308089;28;20234;-73
2022/03/06 12:31:48;;;;;;;11.37;10.20;;;8.40;22.50;;;;;;10319377;28;20231;-75
2022/03/06 12:36:56;;;;;;;11.10;10.00;;;8.30;23.10;;;;;;10316888;28;20243;-75
2022/03/06 12:41:59;;;;;;;10.47;9.37;;;8.30;23.10;;;;;;10322141;28;20227;-73
2022/03/06 12:47:04;;;;;;;10.33;9.30;;;8.20;23.60;;;;;;10319326;28;20241;-72
2022/03/06 12:52:11;;;;;;;10.40;9.33;;;8.20;23.60;;;;;;10328485;28;20235;-72
2022/03/06 12:57:14;;;;;;;11.20;10.10;;;8.20;23.10;;;;;;10328253;28;20239;-72
2022/03/06 13:02:18;;;;;;;11.53;10.33;;;8.30;23.50;;;;;;10327881;28;20241;-72
2022/03/06 13:07:26;;;;;;;10.27;9.30;;;8.30;23.40;;;;;;10302859;28;20637;-72
2022/03/06 13:12:34;;;;;;;11.23;9.57;;;8.20;23.20;;;;;;10285183;28;20306;-72
2022/03/06 13:17:37;;;;;;;10.93;9.80;;;8.20;23.70;;;;;;10286845;28;20250;-72
2022/03/06 13:22:42;;;;;;;11.83;10.00;;;8.20;23.80;;;;;;10287177;28;20234;-72
2022/03/06 13:27:50;;;;;;;11.20;9.90;;;8.30;23.70;;;;;;10287100;28;20246;-72
2022/03/06 13:32:55;;;;;;;12.47;10.27;;;8.30;23.40;;;;;;10326232;28;20233;-72
2022/03/06 13:38:01;;;;;;;11.20;10.07;;;8.30;23.60;;;;;;10317679;28;20313;-72
2022/03/06 13:43:05;;;;;;;11.60;10.40;;;8.20;23.20;;;;;;10333678;28;20251;-71
2022/03/06 13:48:09;;;;;;;12.20;10.93;;;8.10;23.80;;;;;;10347889;28;20636;-73
2022/03/06 13:53:17;;;;;;;11.43;10.23;;;8.10;23.40;;;;;;10355510;28;20234;-73
2022/03/06 13:58:21;;;;;;;11.77;10.57;;;8.10;23.30;;;;;;10338963;28;20928;-72
2022/03/06 14:03:28;;;;;;;12.10;10.33;;;8.00;23.40;;;;;;10352420;28;20226;-73
2022/03/06 14:08:42;;;;;;;11.27;9.83;;;8.00;23.20;;;;;;10335404;28;20707;-72
2022/03/06 14:13:45;;;;;;;10.90;9.80;;;7.90;23.20;;;;;;10348508;28;20595;-73
2022/03/06 14:18:50;;;;;;;11.80;10.70;;;8.00;23.60;;;;;;10359566;28;20280;-73
2022/03/06 14:23:56;;;;;;;12.67;11.37;;;8.00;23.40;;;;;;10355750;28;20249;-73
2022/03/06 14:29:01;;;;;;;12.70;11.40;;;8.00;23.20;;;;;;10357608;28;20257;-73
2022/03/06 14:34:25;;;;;;;12.57;11.27;;;7.90;23.30;;;;;;10359057;28;20695;-73
2022/03/06 14:39:30;;;;;;;12.60;11.33;;;7.90;23.20;;;;;;10328076;28;20737;-73
2022/03/06 14:44:34;;;;;;;11.30;10.17;;;7.90;23.00;;;;;;10346585;28;20230;-73
2022/03/06 14:49:37;;;;;;;11.70;10.27;;;7.80;23.10;;;;;;10356244;28;20666;-73
2022/03/06 14:54:44;;;;;;;10.90;9.70;;;7.80;23.60;;;;;;10358911;28;20240;-72
2022/03/06 14:59:47;;;;;;;10.70;9.70;;;7.80;23.20;;;;;;10360359;28;20230;-72
2022/03/06 15:04:50;;;;;;;11.93;10.33;;;7.80;23.20;;;;;;10356063;28;20231;-73
2022/03/06 15:09:55;;;;;;;10.73;9.63;;;7.80;23.10;;;;;;10355599;28;20233;-72
2022/03/06 15:14:58;;;;;;;10.10;9.10;;;7.80;23.00;;;;;;10360520;28;20245;-73
2022/03/06 15:20:01;;;;;;;10.63;9.00;;;7.70;22.90;;;;;;10351154;28;20230;-72
2022/03/06 15:25:07;;;;;;;10.97;9.67;;;7.60;22.90;;;;;;10368226;28;20232;-72
2022/03/06 15:30:11;;;;;;;10.57;9.50;;;7.60;22.90;;;;;;10364769;28;20703;-72
2022/03/06 15:35:14;;;;;;;10.57;9.57;;;7.60;22.90;;;;;;10361105;28;20574;-72
2022/03/06 15:40:19;;;;;;;10.60;9.60;;;7.60;22.90;;;;;;10374338;28;20249;-72
2022/03/06 15:45:22;;;;;;;9.67;8.87;;;7.50;22.70;;;;;;10363496;28;20236;-72
2022/03/06 15:50:26;;;;;;;9.67;8.77;;;7.50;22.90;;;;;;10362739;28;20233;-73
2022/03/06 15:55:30;;;;;;;8.83;7.93;;;7.50;22.90;;;;;;10353026;28;20691;-72
2022/03/06 16:00:34;;;;;;;8.57;7.77;;;7.50;22.90;;;;;;10351885;28;20234;-73
2022/03/06 16:05:37;;;;;;;8.10;7.30;;;7.50;23.00;;;;;;10355400;28;20242;-73
2022/03/06 16:10:44;;;;;;;8.77;8.07;;;7.50;23.00;;;;;;10356636;28;20765;-73
2022/03/06 16:15:48;;;;;;;7.07;6.47;;;7.50;22.60;;;;;;10359569;28;20239;-72
2022/03/06 16:20:51;;;;;;;6.70;6.00;;;7.50;22.80;;;;;;10365009;28;20797;-72
2022/03/06 16:25:56;;;;;;;7.20;6.50;;;7.40;22.60;;;;;;10354200;28;20227;-73
2022/03/06 16:31:01;;;;;;;6.60;6.00;;;7.40;22.70;;;;;;10348746;28;20599;-73
2022/03/06 16:36:05;;;;;;;6.70;6.00;;;7.30;22.70;;;;;;10348262;28;20237;-73
2022/03/06 16:41:09;;;;;;;7.80;6.03;;;7.30;22.70;;;;;;10352985;28;20239;-73
2022/03/06 16:46:12;;;;;;;6.33;5.83;;;7.20;22.60;;;;;;10350911;28;20281;-72
2022/03/06 16:51:16;;;;;;;6.53;5.93;;;7.20;22.80;;;;;;10353975;28;20338;-73
2022/03/06 16:56:21;;;;;;;6.17;5.67;;;7.10;22.80;;;;;;10353680;28;20237;-72
2022/03/06 17:01:24;;;;;;;6.37;5.80;;;7.00;22.60;;;;;;10352440;28;20244;-72
2022/03/06 17:06:27;;;;;;;6.70;6.10;;;6.90;22.50;;;;;;10354423;28;20238;-73
2022/03/06 17:11:32;;;;;;;6.93;6.33;;;6.80;22.60;;;;;;10354403;28;20232;-72
2022/03/06 17:16:35;;;;;;;6.63;6.03;;;6.60;22.40;;;;;;10343528;28;20329;-73
2022/03/06 17:21:39;;;;;;;7.10;6.37;;;6.50;22.60;;;;;;10342296;28;21004;-73
2022/03/06 17:26:43;;;;;;;6.63;6.03;;;6.40;22.70;;;;;;10346019;28;20337;-73
2022/03/06 17:31:47;;;;;;;6.10;5.60;;;6.30;22.90;;;;;;10342316;28;20744;-74
2022/03/06 17:36:50;;;;;;;7.63;6.70;;;6.20;23.10;;;;;;10346462;28;20223;-74
2022/03/06 17:41:54;;;;;;;6.63;5.93;;;6.20;23.20;;;;;;10346652;28;20230;-74
2022/03/06 17:46:59;;;;;;;6.73;6.07;;;6.20;23.30;;;;;;10347071;28;20312;-74
2022/03/06 17:52:04;;;;;;;6.20;5.53;;;6.20;23.40;;;;;;10344885;28;20317;-74
2022/03/06 17:57:09;;;;;;;6.50;5.90;;;6.20;23.30;;;;;;10347483;28;20230;-74
2022/03/06 18:02:12;;;;;;;6.30;5.80;;;6.20;23.30;;;;;;10350667;28;20258;-73
2022/03/06 18:07:16;;;;;;;5.87;5.27;;;6.20;23.30;;;;;;10350480;28;20230;-75
2022/03/06 18:12:20;;;;;;;6.23;5.63;;;6.20;23.40;;;;;;10347801;28;20225;-74
2022/03/06 18:17:24;;;;;;;6.60;5.87;;;6.20;23.40;;;;;;10346433;28;20229;-74
2022/03/06 18:22:27;;;;;;;6.03;5.43;;;6.20;23.40;;;;;;10348056;28;20226;-73
2022/03/06 18:27:32;;;;;;;6.07;5.47;;;6.20;23.50;;;;;;10344894;28;20227;-73
2022/03/06 18:32:35;;;;;;;5.47;5.07;;;6.20;23.60;;;;;;10341104;28;20234;-73
2022/03/06 18:37:38;;;;;;;6.30;5.70;;;6.20;23.50;;;;;;10339617;28;20232;-73
2022/03/06 18:42:43;;;;;;;5.77;5.20;;;6.20;23.50;;;;;;10338377;28;20225;-72
2022/03/06 18:47:46;;;;;;;6.97;6.27;;;6.20;23.60;;;;;;10338305;28;20233;-72
2022/03/06 18:52:49;;;;;;;6.33;5.73;;;6.30;23.60;;;;;;10345302;28;20222;-73
2022/03/06 18:57:54;;;;;;;6.17;5.57;;;6.30;23.60;;;;;;10343274;28;20222;-73
2022/03/06 19:02:57;;;;;;;5.83;5.33;;;6.20;23.50;;;;;;10345702;28;20230;-73
2022/03/06 19:08:01;;;;;;;6.70;6.10;;;6.20;23.50;;;;;;10344931;28;20230;-72
2022/03/06 19:13:05;;;;;;;11.73;10.53;;;6.20;23.50;;;;;;10338512;28;20242;-73
2022/03/06 19:18:10;;;;;;;7.40;6.70;;;6.20;24.00;;;;;;10344009;28;20227;-73
2022/03/06 19:23:18;;;;;;;6.50;5.90;;;6.10;23.30;;;;;;10324851;28;20252;-75
2022/03/06 19:28:36;;;;;;;6.60;5.97;;;6.10;23.30;;;;;;10329584;28;20228;-74
2022/03/06 19:33:40;;;;;;;6.40;5.90;;;6.00;23.20;;;;;;10331336;28;20285;-73
2022/03/06 19:38:43;;;;;;;6.23;5.73;;;6.00;23.30;;;;;;10344957;28;20999;-72
2022/03/06 19:43:51;;;;;;;7.03;6.30;;;6.00;23.30;;;;;;10328137;28;20222;-75
2022/03/06 19:49:00;;;;;;;6.53;5.93;;;5.90;23.30;;;;;;10339814;28;20241;-76
2022/03/06 19:54:03;;;;;;;6.47;5.87;;;5.80;23.30;;;;;;10359514;28;20316;-75
2022/03/06 19:59:08;;;;;;;7.10;6.03;;;5.80;23.30;;;;;;10335664;28;20245;-72
2022/03/06 20:04:12;;;;;;;6.63;6.03;;;5.70;23.30;;;;;;10353153;28;20234;-73
2022/03/06 20:09:16;;;;;;;6.07;5.57;;;5.70;23.40;;;;;;10353737;28;20345;-74
2022/03/06 20:14:21;;;;;;;6.90;6.20;;;5.70;23.40;;;;;;10339514;28;20238;-72
2022/03/06 20:19:25;;;;;;;7.03;6.33;;;5.70;23.50;;;;;;10337766;28;20668;-71
2022/03/06 20:24:30;;;;;;;6.70;6.10;;;5.70;23.50;;;;;;10339746;28;20239;-73
2022/03/06 20:29:35;;;;;;;7.00;6.30;;;5.60;23.40;;;;;;10357942;28;20594;-72
2022/03/06 20:34:38;;;;;;;5.90;5.40;;;5.60;23.50;;;;;;10353779;28;20234;-72
2022/03/06 20:39:41;;;;;;;6.80;6.20;;;5.50;23.60;;;;;;10358815;28;20237;-75
2022/03/06 20:44:46;;;;;;;6.37;5.83;;;5.40;23.80;;;;;;10350908;28;20230;-75
2022/03/06 20:49:49;;;;;;;6.13;5.63;;;5.30;23.90;;;;;;10357668;28;20747;-74
2022/03/06 20:54:53;;;;;;;6.93;6.33;;;5.30;24.10;;;;;;10356469;28;20229;-75
2022/03/06 20:59:58;;;;;;;6.60;6.00;;;5.20;24.30;;;;;;10351055;28;20793;-76
2022/03/06 21:05:03;;;;;;;6.77;6.17;;;5.10;24.50;;;;;;10356753;28;20261;-75
2022/03/06 21:10:08;;;;;;;7.23;6.27;;;5.00;24.70;;;;;;10345826;28;20233;-74
2022/03/06 21:15:13;;;;;;;7.03;6.37;;;5.00;24.80;;;;;;10345410;28;20226;-75
2022/03/06 21:20:18;;;;;;;6.70;6.10;;;4.90;25.00;;;;;;10342627;28;20238;-75
2022/03/06 21:25:21;;;;;;;6.33;5.83;;;4.80;25.00;;;;;;10348768;28;20229;-75
2022/03/06 21:30:26;;;;;;;6.27;5.67;;;4.80;25.20;;;;;;10353951;28;20924;-75
2022/03/06 21:35:30;;;;;;;6.67;6.00;;;4.70;25.40;;;;;;10345838;28;20619;-75
2022/03/06 21:40:33;;;;;;;6.67;6.07;;;4.60;25.30;;;;;;10349435;28;20234;-75
2022/03/06 21:45:38;;;;;;;6.50;5.90;;;4.60;25.30;;;;;;10352001;28;20234;-75
2022/03/06 21:50:41;;;;;;;6.40;5.80;;;4.60;25.60;;;;;;10354201;28;20230;-75
2022/03/06 21:55:44;;;;;;;6.40;5.90;;;4.60;25.60;;;;;;10347393;28;20222;-75
2022/03/06 22:00:49;;;;;;;6.77;6.07;;;4.60;25.60;;;;;;10358714;28;20230;-75
2022/03/06 22:05:53;;;;;;;6.30;5.70;;;4.60;25.70;;;;;;10357231;28;20960;-75
2022/03/06 22:10:57;;;;;;;6.70;6.10;;;4.50;25.60;;;;;;10359395;28;20234;-75
2022/03/06 22:16:02;;;;;;;6.87;6.27;;;4.60;25.60;;;;;;10354971;28;20333;-75
2022/03/06 22:21:05;;;;;;;6.67;5.80;;;4.50;25.60;;;;;;10345528;28;20696;-75
2022/03/06 22:26:08;;;;;;;7.03;6.43;;;4.40;25.50;;;;;;10359482;28;20603;-75
2022/03/06 22:31:13;;;;;;;6.53;5.93;;;4.40;25.50;;;;;;10354246;28;20325;-74
2022/03/06 22:36:17;;;;;;;7.00;6.40;;;4.40;25.50;;;;;;10359109;28;20582;-74
2022/03/06 22:41:20;;;;;;;6.63;6.03;;;4.40;25.50;;;;;;10353468;28;20803;-74
2022/03/06 22:46:25;;;;;;;6.97;6.27;;;4.40;25.50;;;;;;10352650;28;20260;-74
2022/03/06 22:51:28;;;;;;;6.33;5.73;;;4.40;25.50;;;;;;10383116;28;20226;-74
2022/03/06 22:56:31;;;;;;;6.90;6.20;;;4.50;25.60;;;;;;10355189;28;20814;-74
2022/03/06 23:01:36;;;;;;;6.20;5.70;;;4.40;25.50;;;;;;10355750;28;20234;-74
2022/03/06 23:12:00;;;;;;;6.93;6.27;;;4.40;25.50;;;;;;10373840;28;20229;-75
2022/03/06 23:17:06;;;;;;;6.73;6.13;;;4.50;25.60;;;;;;10350401;28;20232;-75
2022/03/06 23:22:09;;;;;;;7.30;6.53;;;4.50;25.60;;;;;;10364094;28;20785;-75
2022/03/06 23:27:13;;;;;;;6.57;5.97;;;4.40;25.50;;;;;;10361825;28;20239;-75
2022/03/06 23:32:18;;;;;;;6.43;5.83;;;4.40;25.50;;;;;;10355086;28;20735;-75
2022/03/06 23:37:24;;;;;;;6.80;6.20;;;4.50;25.70;;;;;;10347632;28;20757;-75
2022/03/06 23:42:27;;;;;;;6.37;5.77;;;4.60;25.70;;;;;;10346195;28;20230;-75
2022/03/06 23:47:32;;;;;;;6.53;5.93;;;4.40;25.70;;;;;;10352743;28;20231;-75
2022/03/06 23:52:35;;;;;;;6.73;6.10;;;4.40;25.90;;;;;;10357860;28;20281;-75
2022/03/06 23:57:39;;;;;;;6.73;6.13;;;4.40;25.80;;;;;;10354924;28;20226;-75
